createdAt,value
2022-08-26T10:02:59.839Z,99726.31
2022-08-26T10:19:01.059Z,99709.56
2022-08-26T13:24:49.031Z,99542.63
2022-08-26T13:58:40.041Z,99510.09
2022-08-26T14:01:35.332Z,99506.59
2022-08-26T14:04:04.211Z,99505.69
2022-08-26T16:18:08.597Z,99450.41
2022-08-26T17:05:56.513Z,99419.75
2022-08-26T17:08:28.945Z,99442.75
2022-08-26T17:10:36.528Z,99417.00
2022-08-26T17:12:44.887Z,99441.38
2022-08-26T17:14:50.945Z,99440.00
2022-08-26T17:16:54.749Z,99434.97
2022-08-26T17:28:13.314Z,99426.47
2022-08-26T17:37:06.135Z,99431.06
2022-08-26T17:39:14.151Z,99437.38
2022-08-26T17:41:21.060Z,99436.59
2022-08-26T17:43:28.191Z,99418.97
2022-08-26T17:48:12.108Z,99444.91
2022-08-26T17:50:18.613Z,99435.66
2022-08-26T17:52:22.056Z,99442.00
2022-08-26T17:54:25.528Z,99429.66
2022-08-26T17:56:30.938Z,99434.28
2022-08-26T17:58:35.143Z,99430.31
2022-08-26T18:00:38.745Z,99425.31
2022-08-26T18:02:43.693Z,99425.97
2022-08-26T18:04:47.180Z,99418.59
2022-08-26T18:06:50.762Z,99427.88
2022-08-26T18:08:55.015Z,99418.03
2022-08-26T18:11:03.159Z,99414.25
2022-08-26T18:13:12.144Z,99430.66
2022-08-26T18:15:26.913Z,99427.69
2022-08-26T18:17:30.254Z,99425.00
2022-08-26T18:19:33.615Z,99423.72
2022-08-26T18:21:37.759Z,99426.69
2022-08-26T18:30:27.893Z,99437.22
2022-08-26T18:32:40.616Z,99442.66
2022-08-26T18:34:53.039Z,99415.13
2022-08-26T18:36:57.270Z,99445.38
2022-08-26T18:39:41.897Z,99452.94
2022-08-26T18:42:01.754Z,99455.03
2022-08-26T18:44:37.914Z,99457.53
2022-08-26T18:46:42.134Z,99457.94
2022-08-26T18:48:45.723Z,99452.06
2022-08-26T19:00:10.885Z,99458.94
2022-08-26T19:09:20.168Z,99460.53
2022-08-26T19:22:49.533Z,99453.91
2022-08-26T19:25:00.083Z,99469.69
2022-08-26T19:37:10.030Z,99476.50
2022-08-26T19:39:32.161Z,99474.00
2022-08-26T19:46:25.969Z,99460.97
2022-08-26T19:49:07.527Z,99471.69
2022-08-26T19:51:44.048Z,99489.81
2022-08-26T20:07:55.976Z,99487.19
2022-08-26T20:10:26.218Z,99494.72
2022-08-26T20:12:40.133Z,99503.56
2022-08-26T20:14:52.231Z,99508.78
2022-08-26T20:21:33.969Z,99507.16
2022-08-26T20:23:37.965Z,99490.50
2022-08-26T20:25:48.233Z,99499.91
2022-08-26T20:27:57.040Z,99508.41
2022-08-26T20:30:12.626Z,99497.84
2022-08-26T20:32:22.020Z,99502.00
2022-08-26T20:34:39.903Z,99499.94
2022-08-26T20:39:50.036Z,99481.38
2022-08-26T20:41:54.583Z,99504.28
2022-08-26T20:43:58.878Z,99492.25
2022-08-26T20:49:07.643Z,99475.16
2022-08-26T20:51:44.226Z,99483.09
2022-08-26T20:58:29.398Z,99468.66
2022-08-26T21:00:44.067Z,99469.19
2022-08-26T21:02:53.797Z,99477.28
2022-08-26T21:05:11.956Z,99468.66
2022-08-26T21:07:23.046Z,99460.97
2022-08-26T21:09:32.639Z,99473.16
2022-08-26T21:11:39.083Z,99462.28
2022-08-26T21:20:37.093Z,99465.13
2022-08-26T21:22:44.811Z,99470.38
2022-08-26T21:24:53.066Z,99471.44
2022-08-26T21:27:00.195Z,99463.47
2022-08-26T21:29:06.154Z,99462.16
2022-08-26T21:35:58.194Z,99476.06
2022-08-26T21:38:10.161Z,99464.13
2022-08-26T21:40:19.082Z,99467.25
2022-08-26T21:42:33.844Z,99471.84
2022-08-26T21:44:46.512Z,99473.06
2022-08-26T21:46:59.714Z,99477.03
2022-08-26T21:49:11.079Z,99478.59
2022-08-26T21:51:23.478Z,99486.91
2022-08-26T21:58:12.794Z,99475.97
2022-08-26T22:11:36.238Z,99445.56
2022-08-26T22:34:16.079Z,99448.38
2022-08-26T22:58:35.409Z,99438.09
2022-08-26T23:24:20.072Z,99434.78
